sensor_id;sensor_type;location;lat;lon;timestamp;P1;durP1;ratioP1;P2;durP2;ratioP2
33716;SDS011;20046;50.746;7.072;2023-09-19T00:02:01;4.28;;;1.83;;
33716;SDS011;20046;50.746;7.072;2023-09-19T00:04:30;4.88;;;1.90;;
33716;SDS011;20046;50.746;7.072;2023-09-19T00:06:57;6.43;;;1.80;;
33716;SDS011;20046;50.746;7.072;2023-09-19T00:09:23;4.72;;;2.38;;
33716;SDS011;20046;50.746;7.072;2023-09-19T00:11:52;5.55;;;1.98;;
33716;SDS011;20046;50.746;7.072;2023-09-19T00:14:18;4.30;;;2.22;;
33716;SDS011;20046;50.746;7.072;2023-09-19T00:16:44;7.22;;;2.40;;
33716;SDS011;20046;50.746;7.072;2023-09-19T00:19:11;6.35;;;1.73;;
33716;SDS011;20046;50.746;7.072;2023-09-19T00:21:37;8.25;;;2.08;;
33716;SDS011;20046;50.746;7.072;2023-09-19T00:24:03;5.32;;;1.67;;
33716;SDS011;20046;50.746;7.072;2023-09-19T00:26:31;8.55;;;1.80;;
33716;SDS011;20046;50.746;7.072;2023-09-19T00:28:57;8.38;;;2.20;;
33716;SDS011;20046;50.746;7.072;2023-09-19T00:31:29;5.47;;;1.90;;
33716;SDS011;20046;50.746;7.072;2023-09-19T00:33:55;25.27;;;12.73;;
33716;SDS011;20046;50.746;7.072;2023-09-19T00:36:27;12.68;;;4.57;;
33716;SDS011;20046;50.746;7.072;2023-09-19T00:38:54;5.30;;;2.22;;
33716;SDS011;20046;50.746;7.072;2023-09-19T00:41:19;5.85;;;1.83;;
33716;SDS011;20046;50.746;7.072;2023-09-19T00:43:46;5.70;;;1.88;;
33716;SDS011;20046;50.746;7.072;2023-09-19T00:46:12;7.95;;;2.17;;
33716;SDS011;20046;50.746;7.072;2023-09-19T00:48:42;10.27;;;2.67;;
33716;SDS011;20046;50.746;7.072;2023-09-19T00:51:11;5.10;;;1.92;;
33716;SDS011;20046;50.746;7.072;2023-09-19T00:53:38;10.32;;;2.42;;
33716;SDS011;20046;50.746;7.072;2023-09-19T00:56:04;7.95;;;1.92;;
33716;SDS011;20046;50.746;7.072;2023-09-19T00:58:31;7.85;;;2.17;;
33716;SDS011;20046;50.746;7.072;2023-09-19T01:00:58;5.65;;;1.55;;
33716;SDS011;20046;50.746;7.072;2023-09-19T01:03:24;9.93;;;1.70;;
33716;SDS011;20046;50.746;7.072;2023-09-19T01:05:50;11.80;;;2.45;;
33716;SDS011;20046;50.746;7.072;2023-09-19T01:08:16;10.57;;;2.17;;
33716;SDS011;20046;50.746;7.072;2023-09-19T01:10:46;5.75;;;2.00;;
33716;SDS011;20046;50.746;7.072;2023-09-19T01:18:57;5.80;;;2.15;;
33716;SDS011;20046;50.746;7.072;2023-09-19T01:30:14;5.53;;;1.90;;
33716;SDS011;20046;50.746;7.072;2023-09-19T01:32:47;2.92;;;1.40;;
33716;SDS011;20046;50.746;7.072;2023-09-19T01:35:17;6.35;;;1.60;;
33716;SDS011;20046;50.746;7.072;2023-09-19T01:37:43;9.10;;;2.33;;
33716;SDS011;20046;50.746;7.072;2023-09-19T01:40:10;4.15;;;1.40;;
33716;SDS011;20046;50.746;7.072;2023-09-19T01:45:55;7.93;;;2.30;;
33716;SDS011;20046;50.746;7.072;2023-09-19T01:51:18;13.90;;;2.20;;
33716;SDS011;20046;50.746;7.072;2023-09-19T01:56:28;11.45;;;1.88;;
33716;SDS011;20046;50.746;7.072;2023-09-19T01:59:24;10.25;;;1.80;;
33716;SDS011;20046;50.746;7.072;2023-09-19T02:01:53;12.52;;;2.30;;
33716;SDS011;20046;50.746;7.072;2023-09-19T02:04:20;14.30;;;2.20;;
33716;SDS011;20046;50.746;7.072;2023-09-19T02:06:45;8.27;;;1.88;;
33716;SDS011;20046;50.746;7.072;2023-09-19T02:09:12;9.13;;;2.10;;
33716;SDS011;20046;50.746;7.072;2023-09-19T02:11:39;10.65;;;3.67;;
33716;SDS011;20046;50.746;7.072;2023-09-19T02:14:06;10.57;;;2.20;;
33716;SDS011;20046;50.746;7.072;2023-09-19T02:16:33;13.20;;;2.40;;
33716;SDS011;20046;50.746;7.072;2023-09-19T02:19:02;10.98;;;2.15;;
33716;SDS011;20046;50.746;7.072;2023-09-19T02:21:30;25.05;;;3.05;;
33716;SDS011;20046;50.746;7.072;2023-09-19T02:23:57;13.38;;;2.22;;
33716;SDS011;20046;50.746;7.072;2023-09-19T02:26:23;11.23;;;1.98;;
33716;SDS011;20046;50.746;7.072;2023-09-19T02:28:49;12.07;;;2.50;;
33716;SDS011;20046;50.746;7.072;2023-09-19T02:31:15;12.27;;;2.78;;
33716;SDS011;20046;50.746;7.072;2023-09-19T02:33:41;11.43;;;2.47;;
33716;SDS011;20046;50.746;7.072;2023-09-19T02:36:07;13.13;;;2.20;;
33716;SDS011;20046;50.746;7.072;2023-09-19T02:38:33;11.25;;;2.53;;
33716;SDS011;20046;50.746;7.072;2023-09-19T02:40:59;9.10;;;2.35;;
33716;SDS011;20046;50.746;7.072;2023-09-19T02:43:25;14.35;;;2.42;;
33716;SDS011;20046;50.746;7.072;2023-09-19T02:45:50;10.57;;;2.60;;
33716;SDS011;20046;50.746;7.072;2023-09-19T02:48:20;12.52;;;2.40;;
33716;SDS011;20046;50.746;7.072;2023-09-19T02:50:46;8.95;;;2.35;;
33716;SDS011;20046;50.746;7.072;2023-09-19T02:53:14;16.55;;;2.80;;
33716;SDS011;20046;50.746;7.072;2023-09-19T02:55:40;12.68;;;2.42;;
33716;SDS011;20046;50.746;7.072;2023-09-19T02:58:06;9.70;;;2.58;;
33716;SDS011;20046;50.746;7.072;2023-09-19T03:00:39;10.75;;;2.92;;
33716;SDS011;20046;50.746;7.072;2023-09-19T03:03:07;10.20;;;2.60;;
33716;SDS011;20046;50.746;7.072;2023-09-19T03:05:33;15.32;;;3.60;;
33716;SDS011;20046;50.746;7.072;2023-09-19T03:07:59;18.30;;;3.08;;
33716;SDS011;20046;50.746;7.072;2023-09-19T03:10:28;15.23;;;2.67;;
33716;SDS011;20046;50.746;7.072;2023-09-19T03:12:54;11.63;;;2.42;;
33716;SDS011;20046;50.746;7.072;2023-09-19T03:15:20;10.63;;;2.78;;
33716;SDS011;20046;50.746;7.072;2023-09-19T03:17:47;13.85;;;2.95;;
33716;SDS011;20046;50.746;7.072;2023-09-19T03:20:14;14.85;;;3.05;;
33716;SDS011;20046;50.746;7.072;2023-09-19T03:22:42;13.45;;;3.42;;
33716;SDS011;20046;50.746;7.072;2023-09-19T03:25:08;14.05;;;2.38;;
33716;SDS011;20046;50.746;7.072;2023-09-19T03:27:36;19.45;;;3.40;;
33716;SDS011;20046;50.746;7.072;2023-09-19T03:30:03;16.67;;;2.70;;
33716;SDS011;20046;50.746;7.072;2023-09-19T03:32:36;10.00;;;2.72;;
33716;SDS011;20046;50.746;7.072;2023-09-19T03:35:08;16.63;;;2.85;;
33716;SDS011;20046;50.746;7.072;2023-09-19T03:37:36;11.90;;;2.20;;
33716;SDS011;20046;50.746;7.072;2023-09-19T03:40:02;13.77;;;3.20;;
33716;SDS011;20046;50.746;7.072;2023-09-19T03:42:30;17.05;;;2.60;;
33716;SDS011;20046;50.746;7.072;2023-09-19T03:44:56;11.48;;;2.85;;
33716;SDS011;20046;50.746;7.072;2023-09-19T03:47:22;12.45;;;2.63;;
33716;SDS011;20046;50.746;7.072;2023-09-19T03:49:47;12.82;;;3.40;;
33716;SDS011;20046;50.746;7.072;2023-09-19T03:52:13;11.52;;;2.58;;
33716;SDS011;20046;50.746;7.072;2023-09-19T03:54:40;16.02;;;3.05;;
33716;SDS011;20046;50.746;7.072;2023-09-19T03:57:06;9.65;;;3.05;;
33716;SDS011;20046;50.746;7.072;2023-09-19T03:59:32;11.15;;;2.85;;
33716;SDS011;20046;50.746;7.072;2023-09-19T04:01:58;12.85;;;2.75;;
33716;SDS011;20046;50.746;7.072;2023-09-19T04:04:24;13.13;;;2.53;;
33716;SDS011;20046;50.746;7.072;2023-09-19T04:06:52;15.00;;;2.40;;
33716;SDS011;20046;50.746;7.072;2023-09-19T04:09:18;14.85;;;2.80;;
33716;SDS011;20046;50.746;7.072;2023-09-19T04:11:44;16.35;;;2.80;;
33716;SDS011;20046;50.746;7.072;2023-09-19T04:14:09;14.50;;;3.15;;
33716;SDS011;20046;50.746;7.072;2023-09-19T04:16:35;12.68;;;2.80;;
33716;SDS011;20046;50.746;7.072;2023-09-19T04:19:01;14.73;;;2.67;;
33716;SDS011;20046;50.746;7.072;2023-09-19T04:21:27;12.85;;;2.75;;
33716;SDS011;20046;50.746;7.072;2023-09-19T04:23:54;14.45;;;2.50;;
33716;SDS011;20046;50.746;7.072;2023-09-19T04:26:19;12.30;;;3.22;;
33716;SDS011;20046;50.746;7.072;2023-09-19T04:28:46;10.80;;;2.40;;
33716;SDS011;20046;50.746;7.072;2023-09-19T04:31:12;12.05;;;3.53;;
33716;SDS011;20046;50.746;7.072;2023-09-19T04:33:39;12.48;;;2.72;;
33716;SDS011;20046;50.746;7.072;2023-09-19T04:36:04;12.07;;;2.75;;
33716;SDS011;20046;50.746;7.072;2023-09-19T04:38:32;16.35;;;3.53;;
33716;SDS011;20046;50.746;7.072;2023-09-19T04:40:58;17.13;;;3.33;;
33716;SDS011;20046;50.746;7.072;2023-09-19T04:43:24;13.68;;;3.55;;
33716;SDS011;20046;50.746;7.072;2023-09-19T04:45:50;15.45;;;3.38;;
33716;SDS011;20046;50.746;7.072;2023-09-19T04:48:16;14.75;;;2.72;;
33716;SDS011;20046;50.746;7.072;2023-09-19T04:50:42;23.83;;;3.25;;
33716;SDS011;20046;50.746;7.072;2023-09-19T04:53:09;11.82;;;2.92;;
33716;SDS011;20046;50.746;7.072;2023-09-19T04:55:34;16.92;;;3.55;;
33716;SDS011;20046;50.746;7.072;2023-09-19T04:58:00;15.95;;;3.55;;
33716;SDS011;20046;50.746;7.072;2023-09-19T05:00:25;17.25;;;3.33;;
33716;SDS011;20046;50.746;7.072;2023-09-19T05:02:54;19.80;;;2.65;;
33716;SDS011;20046;50.746;7.072;2023-09-19T05:05:23;19.00;;;3.58;;
33716;SDS011;20046;50.746;7.072;2023-09-19T05:07:51;15.77;;;3.08;;
33716;SDS011;20046;50.746;7.072;2023-09-19T05:10:19;12.52;;;2.63;;
33716;SDS011;20046;50.746;7.072;2023-09-19T05:12:45;13.70;;;3.25;;
33716;SDS011;20046;50.746;7.072;2023-09-19T05:15:13;19.48;;;3.47;;
33716;SDS011;20046;50.746;7.072;2023-09-19T05:17:51;13.77;;;2.72;;
33716;SDS011;20046;50.746;7.072;2023-09-19T05:20:19;16.83;;;3.00;;
33716;SDS011;20046;50.746;7.072;2023-09-19T05:23:11;15.55;;;2.70;;
33716;SDS011;20046;50.746;7.072;2023-09-19T05:25:37;15.10;;;3.60;;
33716;SDS011;20046;50.746;7.072;2023-09-19T05:28:07;18.92;;;3.17;;
33716;SDS011;20046;50.746;7.072;2023-09-19T05:30:35;15.32;;;3.00;;
33716;SDS011;20046;50.746;7.072;2023-09-19T05:33:03;15.70;;;2.88;;
33716;SDS011;20046;50.746;7.072;2023-09-19T05:35:29;16.20;;;2.95;;
33716;SDS011;20046;50.746;7.072;2023-09-19T05:37:55;11.05;;;2.83;;
33716;SDS011;20046;50.746;7.072;2023-09-19T05:40:22;13.35;;;3.60;;
33716;SDS011;20046;50.746;7.072;2023-09-19T05:42:49;14.60;;;2.92;;
33716;SDS011;20046;50.746;7.072;2023-09-19T05:45:15;17.02;;;3.92;;
33716;SDS011;20046;50.746;7.072;2023-09-19T05:47:50;16.45;;;3.47;;
33716;SDS011;20046;50.746;7.072;2023-09-19T05:50:20;12.30;;;3.20;;
33716;SDS011;20046;50.746;7.072;2023-09-19T05:52:52;18.85;;;4.07;;
33716;SDS011;20046;50.746;7.072;2023-09-19T05:55:18;20.48;;;3.83;;
33716;SDS011;20046;50.746;7.072;2023-09-19T05:57:49;14.10;;;3.65;;
33716;SDS011;20046;50.746;7.072;2023-09-19T06:00:17;17.27;;;4.00;;
33716;SDS011;20046;50.746;7.072;2023-09-19T06:02:48;18.88;;;3.88;;
33716;SDS011;20046;50.746;7.072;2023-09-19T06:05:17;16.67;;;3.15;;
33716;SDS011;20046;50.746;7.072;2023-09-19T06:07:43;20.38;;;4.50;;
33716;SDS011;20046;50.746;7.072;2023-09-19T06:10:09;18.02;;;3.20;;
33716;SDS011;20046;50.746;7.072;2023-09-19T06:12:38;27.15;;;3.40;;
33716;SDS011;20046;50.746;7.072;2023-09-19T06:15:04;15.90;;;3.65;;
33716;SDS011;20046;50.746;7.072;2023-09-19T06:17:31;19.40;;;3.30;;
33716;SDS011;20046;50.746;7.072;2023-09-19T06:19:56;15.50;;;3.13;;
33716;SDS011;20046;50.746;7.072;2023-09-19T06:22:22;23.70;;;3.30;;
33716;SDS011;20046;50.746;7.072;2023-09-19T06:24:49;14.20;;;2.60;;
33716;SDS011;20046;50.746;7.072;2023-09-19T06:27:15;13.75;;;3.25;;
33716;SDS011;20046;50.746;7.072;2023-09-19T06:29:40;12.70;;;3.67;;
33716;SDS011;20046;50.746;7.072;2023-09-19T06:32:07;14.40;;;2.95;;
33716;SDS011;20046;50.746;7.072;2023-09-19T06:34:33;19.15;;;3.65;;
33716;SDS011;20046;50.746;7.072;2023-09-19T06:36:59;14.85;;;3.22;;
33716;SDS011;20046;50.746;7.072;2023-09-19T06:39:25;16.60;;;3.05;;
33716;SDS011;20046;50.746;7.072;2023-09-19T06:41:51;15.95;;;3.30;;
33716;SDS011;20046;50.746;7.072;2023-09-19T06:44:18;15.85;;;2.63;;
33716;SDS011;20046;50.746;7.072;2023-09-19T06:46:46;16.13;;;2.83;;
33716;SDS011;20046;50.746;7.072;2023-09-19T06:49:14;22.92;;;3.92;;
33716;SDS011;20046;50.746;7.072;2023-09-19T06:51:40;15.23;;;3.20;;
33716;SDS011;20046;50.746;7.072;2023-09-19T06:54:07;15.55;;;2.58;;
33716;SDS011;20046;50.746;7.072;2023-09-19T06:56:32;17.55;;;2.85;;
33716;SDS011;20046;50.746;7.072;2023-09-19T06:58:58;16.30;;;3.88;;
33716;SDS011;20046;50.746;7.072;2023-09-19T07:01:23;15.70;;;3.10;;
33716;SDS011;20046;50.746;7.072;2023-09-19T07:03:50;19.98;;;3.80;;
33716;SDS011;20046;50.746;7.072;2023-09-19T07:06:15;15.38;;;3.15;;
33716;SDS011;20046;50.746;7.072;2023-09-19T07:08:41;22.30;;;3.05;;
33716;SDS011;20046;50.746;7.072;2023-09-19T07:11:09;13.00;;;3.47;;
33716;SDS011;20046;50.746;7.072;2023-09-19T07:13:37;18.25;;;3.70;;
33716;SDS011;20046;50.746;7.072;2023-09-19T07:16:03;17.67;;;3.60;;
33716;SDS011;20046;50.746;7.072;2023-09-19T07:18:29;15.88;;;3.15;;
33716;SDS011;20046;50.746;7.072;2023-09-19T07:20:58;15.35;;;3.28;;
33716;SDS011;20046;50.746;7.072;2023-09-19T07:23:29;11.40;;;2.83;;
33716;SDS011;20046;50.746;7.072;2023-09-19T07:25:59;15.75;;;2.97;;
33716;SDS011;20046;50.746;7.072;2023-09-19T07:28:26;14.93;;;3.25;;
33716;SDS011;20046;50.746;7.072;2023-09-19T07:30:52;26.40;;;3.92;;
33716;SDS011;20046;50.746;7.072;2023-09-19T07:33:18;14.20;;;3.13;;
33716;SDS011;20046;50.746;7.072;2023-09-19T07:35:46;15.18;;;3.00;;
33716;SDS011;20046;50.746;7.072;2023-09-19T07:38:13;16.23;;;2.90;;
33716;SDS011;20046;50.746;7.072;2023-09-19T07:40:39;18.10;;;3.25;;
33716;SDS011;20046;50.746;7.072;2023-09-19T07:43:04;14.68;;;3.25;;
33716;SDS011;20046;50.746;7.072;2023-09-19T07:45:31;16.92;;;3.20;;
33716;SDS011;20046;50.746;7.072;2023-09-19T07:47:57;13.57;;;2.75;;
33716;SDS011;20046;50.746;7.072;2023-09-19T07:50:23;11.23;;;3.05;;
33716;SDS011;20046;50.746;7.072;2023-09-19T07:52:49;14.93;;;3.47;;
33716;SDS011;20046;50.746;7.072;2023-09-19T07:55:18;13.98;;;3.05;;
33716;SDS011;20046;50.746;7.072;2023-09-19T07:57:48;11.02;;;2.40;;
33716;SDS011;20046;50.746;7.072;2023-09-19T08:00:14;15.60;;;3.28;;
33716;SDS011;20046;50.746;7.072;2023-09-19T08:02:40;13.27;;;2.78;;
33716;SDS011;20046;50.746;7.072;2023-09-19T08:05:07;13.52;;;2.80;;
33716;SDS011;20046;50.746;7.072;2023-09-19T08:07:37;15.30;;;2.55;;
33716;SDS011;20046;50.746;7.072;2023-09-19T08:10:04;12.95;;;3.35;;
33716;SDS011;20046;50.746;7.072;2023-09-19T08:12:39;17.25;;;3.20;;
33716;SDS011;20046;50.746;7.072;2023-09-19T08:15:18;20.33;;;3.25;;
33716;SDS011;20046;50.746;7.072;2023-09-19T08:17:45;22.02;;;3.78;;
33716;SDS011;20046;50.746;7.072;2023-09-19T08:20:11;13.82;;;3.20;;
33716;SDS011;20046;50.746;7.072;2023-09-19T08:22:50;9.05;;;2.50;;
33716;SDS011;20046;50.746;7.072;2023-09-19T08:25:17;17.35;;;3.17;;
33716;SDS011;20046;50.746;7.072;2023-09-19T08:27:43;13.73;;;2.95;;
33716;SDS011;20046;50.746;7.072;2023-09-19T08:30:13;13.70;;;3.78;;
33716;SDS011;20046;50.746;7.072;2023-09-19T08:32:49;13.00;;;2.85;;
33716;SDS011;20046;50.746;7.072;2023-09-19T08:35:24;11.55;;;3.13;;
33716;SDS011;20046;50.746;7.072;2023-09-19T08:37:52;13.98;;;2.70;;
33716;SDS011;20046;50.746;7.072;2023-09-19T08:40:29;10.82;;;3.28;;
33716;SDS011;20046;50.746;7.072;2023-09-19T08:42:58;14.82;;;2.55;;
33716;SDS011;20046;50.746;7.072;2023-09-19T08:45:24;11.90;;;2.70;;
33716;SDS011;20046;50.746;7.072;2023-09-19T08:50:31;12.77;;;2.55;;
33716;SDS011;20046;50.746;7.072;2023-09-19T08:53:03;10.90;;;2.78;;
33716;SDS011;20046;50.746;7.072;2023-09-19T08:55:37;14.23;;;2.85;;
33716;SDS011;20046;50.746;7.072;2023-09-19T08:58:06;9.23;;;2.45;;
33716;SDS011;20046;50.746;7.072;2023-09-19T09:00:35;10.20;;;2.40;;
33716;SDS011;20046;50.746;7.072;2023-09-19T09:03:01;9.43;;;2.30;;
33716;SDS011;20046;50.746;7.072;2023-09-19T09:05:29;12.63;;;2.50;;
33716;SDS011;20046;50.746;7.072;2023-09-19T09:07:57;12.63;;;2.58;;
33716;SDS011;20046;50.746;7.072;2023-09-19T09:10:24;16.48;;;2.70;;
33716;SDS011;20046;50.746;7.072;2023-09-19T09:12:53;11.98;;;2.55;;
33716;SDS011;20046;50.746;7.072;2023-09-19T09:15:23;13.55;;;2.70;;
33716;SDS011;20046;50.746;7.072;2023-09-19T09:17:49;9.48;;;2.50;;
33716;SDS011;20046;50.746;7.072;2023-09-19T09:20:17;11.35;;;2.85;;
33716;SDS011;20046;50.746;7.072;2023-09-19T09:22:50;9.73;;;2.90;;
33716;SDS011;20046;50.746;7.072;2023-09-19T09:25:19;10.32;;;3.05;;
33716;SDS011;20046;50.746;7.072;2023-09-19T09:28:06;9.85;;;2.40;;
33716;SDS011;20046;50.746;7.072;2023-09-19T09:30:33;19.00;;;3.15;;
33716;SDS011;20046;50.746;7.072;2023-09-19T09:33:12;11.68;;;2.88;;
33716;SDS011;20046;50.746;7.072;2023-09-19T09:38:19;11.38;;;2.80;;
33716;SDS011;20046;50.746;7.072;2023-09-19T09:40:47;10.57;;;3.10;;
33716;SDS011;20046;50.746;7.072;2023-09-19T09:43:31;14.27;;;2.78;;
33716;SDS011;20046;50.746;7.072;2023-09-19T09:51:49;10.75;;;2.20;;
33716;SDS011;20046;50.746;7.072;2023-09-19T09:54:32;12.25;;;2.47;;
33716;SDS011;20046;50.746;7.072;2023-09-19T09:57:05;14.20;;;3.55;;
33716;SDS011;20046;50.746;7.072;2023-09-19T10:02:40;11.10;;;2.20;;
33716;SDS011;20046;50.746;7.072;2023-09-19T10:05:13;7.88;;;2.13;;
33716;SDS011;20046;50.746;7.072;2023-09-19T10:07:53;8.35;;;2.03;;
33716;SDS011;20046;50.746;7.072;2023-09-19T10:10:31;8.55;;;2.22;;
33716;SDS011;20046;50.746;7.072;2023-09-19T10:13:04;12.13;;;2.15;;
33716;SDS011;20046;50.746;7.072;2023-09-19T10:15:33;13.13;;;2.30;;
33716;SDS011;20046;50.746;7.072;2023-09-19T10:18:01;9.23;;;2.38;;
33716;SDS011;20046;50.746;7.072;2023-09-19T10:20:33;7.03;;;1.70;;
33716;SDS011;20046;50.746;7.072;2023-09-19T10:23:00;12.05;;;2.45;;
33716;SDS011;20046;50.746;7.072;2023-09-19T10:25:28;9.18;;;2.60;;
33716;SDS011;20046;50.746;7.072;2023-09-19T10:27:55;11.10;;;2.53;;
33716;SDS011;20046;50.746;7.072;2023-09-19T10:30:24;9.40;;;3.22;;
33716;SDS011;20046;50.746;7.072;2023-09-19T10:32:54;7.88;;;2.47;;
33716;SDS011;20046;50.746;7.072;2023-09-19T10:35:24;7.28;;;2.25;;
33716;SDS011;20046;50.746;7.072;2023-09-19T10:37:51;9.73;;;2.58;;
33716;SDS011;20046;50.746;7.072;2023-09-19T10:40:19;10.18;;;3.10;;
33716;SDS011;20046;50.746;7.072;2023-09-19T10:42:51;7.75;;;2.17;;
33716;SDS011;20046;50.746;7.072;2023-09-19T10:45:18;7.60;;;2.20;;
33716;SDS011;20046;50.746;7.072;2023-09-19T10:47:45;10.70;;;2.75;;
33716;SDS011;20046;50.746;7.072;2023-09-19T10:50:19;12.63;;;2.40;;
33716;SDS011;20046;50.746;7.072;2023-09-19T10:52:46;7.50;;;1.90;;
33716;SDS011;20046;50.746;7.072;2023-09-19T10:55:18;7.72;;;2.20;;
33716;SDS011;20046;50.746;7.072;2023-09-19T10:57:47;8.05;;;2.22;;
33716;SDS011;20046;50.746;7.072;2023-09-19T11:00:13;22.25;;;2.67;;
33716;SDS011;20046;50.746;7.072;2023-09-19T11:08:52;9.43;;;2.15;;
33716;SDS011;20046;50.746;7.072;2023-09-19T11:11:44;13.45;;;2.45;;
33716;SDS011;20046;50.746;7.072;2023-09-19T11:30:31;9.48;;;2.60;;
33716;SDS011;20046;50.746;7.072;2023-09-19T11:43:47;6.63;;;2.03;;
33716;SDS011;20046;50.746;7.072;2023-09-19T11:46:15;7.55;;;2.42;;
33716;SDS011;20046;50.746;7.072;2023-09-19T11:48:47;7.57;;;2.70;;
33716;SDS011;20046;50.746;7.072;2023-09-19T11:51:18;14.45;;;4.50;;
33716;SDS011;20046;50.746;7.072;2023-09-19T11:53:53;5.93;;;2.00;;
33716;SDS011;20046;50.746;7.072;2023-09-19T11:56:21;6.10;;;2.20;;
33716;SDS011;20046;50.746;7.072;2023-09-19T11:58:52;7.85;;;2.50;;
33716;SDS011;20046;50.746;7.072;2023-09-19T12:01:23;7.63;;;2.45;;
33716;SDS011;20046;50.746;7.072;2023-09-19T12:04:00;7.80;;;2.30;;
33716;SDS011;20046;50.746;7.072;2023-09-19T12:06:29;6.03;;;2.28;;
33716;SDS011;20046;50.746;7.072;2023-09-19T12:08:57;9.65;;;2.67;;
33716;SDS011;20046;50.746;7.072;2023-09-19T12:11:27;6.55;;;2.30;;
33716;SDS011;20046;50.746;7.072;2023-09-19T12:13:55;7.18;;;2.10;;
33716;SDS011;20046;50.746;7.072;2023-09-19T12:16:25;8.82;;;2.13;;
33716;SDS011;20046;50.746;7.072;2023-09-19T12:18:55;6.78;;;2.30;;
33716;SDS011;20046;50.746;7.072;2023-09-19T12:28:59;8.30;;;2.40;;
33716;SDS011;20046;50.746;7.072;2023-09-19T12:31:26;6.70;;;1.92;;
33716;SDS011;20046;50.746;7.072;2023-09-19T12:33:53;8.35;;;2.22;;
33716;SDS011;20046;50.746;7.072;2023-09-19T12:36:23;4.78;;;2.05;;
33716;SDS011;20046;50.746;7.072;2023-09-19T12:38:58;6.03;;;2.40;;
33716;SDS011;20046;50.746;7.072;2023-09-19T12:41:25;6.97;;;2.83;;
33716;SDS011;20046;50.746;7.072;2023-09-19T12:43:52;6.15;;;1.90;;
33716;SDS011;20046;50.746;7.072;2023-09-19T12:46:20;5.55;;;2.13;;
33716;SDS011;20046;50.746;7.072;2023-09-19T12:49:14;8.13;;;2.13;;
33716;SDS011;20046;50.746;7.072;2023-09-19T12:51:45;6.22;;;2.03;;
33716;SDS011;20046;50.746;7.072;2023-09-19T12:54:12;6.03;;;2.35;;
33716;SDS011;20046;50.746;7.072;2023-09-19T12:56:42;6.57;;;2.10;;
33716;SDS011;20046;50.746;7.072;2023-09-19T12:59:10;3.35;;;1.70;;
33716;SDS011;20046;50.746;7.072;2023-09-19T13:01:40;6.57;;;1.83;;
33716;SDS011;20046;50.746;7.072;2023-09-19T13:06:44;9.07;;;2.08;;
33716;SDS011;20046;50.746;7.072;2023-09-19T13:09:13;4.78;;;1.70;;
33716;SDS011;20046;50.746;7.072;2023-09-19T13:11:39;5.63;;;1.85;;
33716;SDS011;20046;50.746;7.072;2023-09-19T13:14:20;4.82;;;1.52;;
33716;SDS011;20046;50.746;7.072;2023-09-19T13:17:02;5.82;;;1.42;;
33716;SDS011;20046;50.746;7.072;2023-09-19T13:19:39;9.27;;;1.80;;
33716;SDS011;20046;50.746;7.072;2023-09-19T13:25:08;5.97;;;1.65;;
33716;SDS011;20046;50.746;7.072;2023-09-19T13:27:40;3.90;;;1.40;;
33716;SDS011;20046;50.746;7.072;2023-09-19T13:30:10;4.07;;;1.40;;
33716;SDS011;20046;50.746;7.072;2023-09-19T13:32:36;4.65;;;1.70;;
33716;SDS011;20046;50.746;7.072;2023-09-19T13:35:03;6.53;;;1.60;;
33716;SDS011;20046;50.746;7.072;2023-09-19T13:37:30;6.03;;;1.85;;
33716;SDS011;20046;50.746;7.072;2023-09-19T13:39:56;7.13;;;1.58;;
33716;SDS011;20046;50.746;7.072;2023-09-19T13:42:23;5.85;;;1.67;;
33716;SDS011;20046;50.746;7.072;2023-09-19T13:44:50;4.60;;;1.30;;
33716;SDS011;20046;50.746;7.072;2023-09-19T13:47:16;5.88;;;1.73;;
33716;SDS011;20046;50.746;7.072;2023-09-19T13:49:49;6.75;;;1.77;;
33716;SDS011;20046;50.746;7.072;2023-09-19T13:52:17;3.17;;;1.17;;
33716;SDS011;20046;50.746;7.072;2023-09-19T13:54:48;4.53;;;1.50;;
33716;SDS011;20046;50.746;7.072;2023-09-19T13:57:15;5.03;;;1.30;;
33716;SDS011;20046;50.746;7.072;2023-09-19T13:59:41;6.03;;;1.70;;
33716;SDS011;20046;50.746;7.072;2023-09-19T14:02:07;5.47;;;1.63;;
33716;SDS011;20046;50.746;7.072;2023-09-19T14:04:33;3.83;;;1.38;;
33716;SDS011;20046;50.746;7.072;2023-09-19T14:07:01;6.53;;;1.27;;
33716;SDS011;20046;50.746;7.072;2023-09-19T14:09:27;6.85;;;1.63;;
33716;SDS011;20046;50.746;7.072;2023-09-19T14:11:53;5.30;;;1.77;;
33716;SDS011;20046;50.746;7.072;2023-09-19T14:14:18;5.75;;;1.77;;
33716;SDS011;20046;50.746;7.072;2023-09-19T14:16:45;4.93;;;1.50;;
33716;SDS011;20046;50.746;7.072;2023-09-19T14:19:12;3.20;;;1.30;;
33716;SDS011;20046;50.746;7.072;2023-09-19T14:21:40;2.50;;;1.17;;
33716;SDS011;20046;50.746;7.072;2023-09-19T14:24:05;6.45;;;1.30;;
33716;SDS011;20046;50.746;7.072;2023-09-19T14:26:34;3.10;;;1.27;;
33716;SDS011;20046;50.746;7.072;2023-09-19T14:29:00;2.88;;;0.90;;
33716;SDS011;20046;50.746;7.072;2023-09-19T14:31:26;3.80;;;1.30;;
33716;SDS011;20046;50.746;7.072;2023-09-19T14:33:56;3.50;;;1.27;;
33716;SDS011;20046;50.746;7.072;2023-09-19T14:36:24;4.13;;;1.25;;
33716;SDS011;20046;50.746;7.072;2023-09-19T14:38:52;3.83;;;1.52;;
33716;SDS011;20046;50.746;7.072;2023-09-19T14:41:22;5.15;;;1.17;;
33716;SDS011;20046;50.746;7.072;2023-09-19T14:43:48;4.15;;;1.20;;
33716;SDS011;20046;50.746;7.072;2023-09-19T14:46:14;4.30;;;1.10;;
33716;SDS011;20046;50.746;7.072;2023-09-19T14:48:41;5.35;;;1.23;;
33716;SDS011;20046;50.746;7.072;2023-09-19T14:51:07;3.22;;;0.95;;
33716;SDS011;20046;50.746;7.072;2023-09-19T14:53:34;6.43;;;1.23;;
33716;SDS011;20046;50.746;7.072;2023-09-19T14:56:02;6.22;;;1.42;;
33716;SDS011;20046;50.746;7.072;2023-09-19T14:58:29;4.70;;;1.30;;
33716;SDS011;20046;50.746;7.072;2023-09-19T15:01:08;2.67;;;1.30;;
33716;SDS011;20046;50.746;7.072;2023-09-19T15:03:38;4.55;;;1.15;;
33716;SDS011;20046;50.746;7.072;2023-09-19T15:06:05;8.15;;;2.25;;
33716;SDS011;20046;50.746;7.072;2023-09-19T15:08:34;3.85;;;1.30;;
33716;SDS011;20046;50.746;7.072;2023-09-19T15:11:03;7.80;;;1.58;;
33716;SDS011;20046;50.746;7.072;2023-09-19T15:13:35;6.70;;;1.27;;
33716;SDS011;20046;50.746;7.072;2023-09-19T15:16:02;6.38;;;1.20;;
33716;SDS011;20046;50.746;7.072;2023-09-19T15:18:28;7.47;;;1.60;;
33716;SDS011;20046;50.746;7.072;2023-09-19T15:21:02;3.80;;;1.55;;
33716;SDS011;20046;50.746;7.072;2023-09-19T15:23:29;3.65;;;1.42;;
33716;SDS011;20046;50.746;7.072;2023-09-19T15:25:59;3.85;;;1.20;;
33716;SDS011;20046;50.746;7.072;2023-09-19T15:28:28;7.15;;;1.33;;
33716;SDS011;20046;50.746;7.072;2023-09-19T15:31:03;4.95;;;1.33;;
33716;SDS011;20046;50.746;7.072;2023-09-19T15:33:36;5.45;;;1.70;;
33716;SDS011;20046;50.746;7.072;2023-09-19T15:38:30;5.28;;;1.55;;
33716;SDS011;20046;50.746;7.072;2023-09-19T15:40:57;4.28;;;1.58;;
33716;SDS011;20046;50.746;7.072;2023-09-19T15:43:23;4.57;;;1.20;;
33716;SDS011;20046;50.746;7.072;2023-09-19T15:45:49;4.95;;;1.00;;
33716;SDS011;20046;50.746;7.072;2023-09-19T15:48:15;4.72;;;1.30;;
33716;SDS011;20046;50.746;7.072;2023-09-19T15:50:41;5.93;;;1.58;;
33716;SDS011;20046;50.746;7.072;2023-09-19T15:53:08;5.30;;;2.10;;
33716;SDS011;20046;50.746;7.072;2023-09-19T15:55:38;6.03;;;2.65;;
33716;SDS011;20046;50.746;7.072;2023-09-19T15:58:04;5.95;;;2.10;;
33716;SDS011;20046;50.746;7.072;2023-09-19T16:00:31;4.65;;;1.60;;
33716;SDS011;20046;50.746;7.072;2023-09-19T16:02:59;7.88;;;1.48;;
33716;SDS011;20046;50.746;7.072;2023-09-19T16:05:26;5.32;;;1.67;;
33716;SDS011;20046;50.746;7.072;2023-09-19T16:07:52;4.97;;;1.30;;
33716;SDS011;20046;50.746;7.072;2023-09-19T16:10:17;8.05;;;1.65;;
33716;SDS011;20046;50.746;7.072;2023-09-19T16:12:43;5.03;;;1.30;;
33716;SDS011;20046;50.746;7.072;2023-09-19T16:15:09;6.22;;;1.70;;